Time;durP1;ratioP1;P1;durP2;ratioP2;P2;SDS_P1;SDS_P2;PMS_P1;PMS_P2;Temp;Humidity;BMP_temperature;BMP_pressure;BME280_temperature;BME280_humidity;BME280_pressure;Samples;Min_cycle;Max_cycle;Signal;HPM_P1;HPM_P2
2022/06/14 00:01:41;;;;;;;4.87;3.77;;;;;;;14.97;98.37;100870.41;5007818;28;20204;-75
2022/06/14 00:04:06;;;;;;;4.27;3.73;;;;;;;14.94;98.73;100879.13;5003342;28;20214;-76
2022/06/14 00:06:33;;;;;;;4.83;3.77;;;;;;;14.92;99.46;100880.03;5015005;28;20183;-76
2022/06/14 00:08:59;;;;;;;4.20;3.80;;;;;;;14.88;100.00;100880.97;5015070;28;20223;-74
2022/06/14 00:11:35;;;;;;;4.37;3.97;;;;;;;14.84;100.00;100868.88;5024067;28;20202;-74
2022/06/14 00:14:03;;;;;;;5.40;4.40;;;;;;;14.78;100.00;100872.47;5014646;28;20757;-74
2022/06/14 00:16:30;;;;;;;4.77;4.30;;;;;;;14.71;100.00;100871.69;5020984;28;20214;-75
2022/06/14 00:18:56;;;;;;;4.27;3.97;;;;;;;14.66;100.00;100876.13;5013812;28;20203;-76
2022/06/14 00:21:22;;;;;;;4.30;3.90;;;;;;;14.62;100.00;100869.22;5027014;28;20208;-74
2022/06/14 00:23:48;;;;;;;4.80;4.27;;;;;;;14.61;100.00;100875.31;5026565;28;20204;-75
2022/06/14 00:26:14;;;;;;;5.37;3.83;;;;;;;14.58;100.00;100876.25;5008777;28;20210;-75
2022/06/14 00:28:41;;;;;;;4.33;3.93;;;;;;;14.57;100.00;100873.66;5028320;28;20190;-75
2022/06/14 00:31:19;;;;;;;4.33;3.93;;;;;;;14.55;100.00;100872.81;5025120;28;20340;-76
2022/06/14 00:33:46;;;;;;;4.53;3.97;;;;;;;14.55;100.00;100878.88;5014406;28;20230;-75
2022/06/14 00:36:25;;;;;;;5.17;4.70;;;;;;;14.49;100.00;100865.94;5007869;28;20558;-77
2022/06/14 00:38:51;;;;;;;5.53;4.30;;;;;;;14.45;100.00;100861.66;5005972;28;20186;-74
2022/06/14 00:41:41;;;;;;;5.00;4.13;;;;;;;14.43;100.00;100871.28;5011136;28;20212;-74
2022/06/14 00:44:19;;;;;;;5.13;4.33;;;;;;;14.41;100.00;100873.88;5001292;28;20216;-76
2022/06/14 00:47:13;;;;;;;4.87;4.30;;;;;;;14.41;100.00;100863.47;5006862;28;20195;-74
2022/06/14 00:49:49;;;;;;;5.60;4.27;;;;;;;14.41;100.00;100865.22;5003722;28;20220;-75
2022/06/14 00:52:19;;;;;;;4.73;3.83;;;;;;;14.36;100.00;100862.69;5008149;28;20717;-75
2022/06/14 00:54:49;;;;;;;4.70;3.93;;;;;;;14.28;100.00;100865.41;5010338;28;20213;-75
2022/06/14 00:57:21;;;;;;;4.37;3.97;;;;;;;14.23;100.00;100874.16;5021874;28;20279;-75
2022/06/14 00:59:59;;;;;;;4.20;3.73;;;;;;;14.17;100.00;100859.50;5006654;28;20220;-75
2022/06/14 01:02:29;;;;;;;4.53;4.13;;;;;;;14.14;100.00;100859.56;5016656;28;20217;-75
2022/06/14 01:04:56;;;;;;;5.67;4.40;;;;;;;14.09;100.00;100856.16;5011000;28;20247;-75
2022/06/14 01:07:26;;;;;;;4.67;4.17;;;;;;;14.02;100.00;100856.22;5003076;28;20244;-74
2022/06/14 01:09:57;;;;;;;4.70;4.27;;;;;;;13.98;100.00;100854.56;5009628;28;20193;-74
2022/06/14 01:12:27;;;;;;;4.97;4.43;;;;;;;13.92;100.00;100854.66;5007485;28;20683;-75
2022/06/14 01:15:06;;;;;;;4.87;4.37;;;;;;;13.89;100.00;100846.03;5009789;28;20209;-75
2022/06/14 01:17:38;;;;;;;4.40;4.00;;;;;;;13.87;100.00;100857.31;5008174;28;20185;-75
2022/06/14 01:20:04;;;;;;;4.60;4.20;;;;;;;13.86;100.00;100854.72;5012410;28;20199;-76
2022/06/14 01:22:31;;;;;;;5.77;4.37;;;;;;;13.80;100.00;100852.22;5004680;28;20235;-76
2022/06/14 01:25:00;;;;;;;5.50;4.87;;;;;;;13.74;100.00;100853.16;5008808;28;20272;-74
2022/06/14 01:27:27;;;;;;;7.60;4.70;;;;;;;13.68;100.00;100848.03;5010764;28;20196;-75
2022/06/14 01:30:01;;;;;;;6.63;4.67;;;;;;;13.62;100.00;100846.38;5010777;28;20198;-75
2022/06/14 01:32:32;;;;;;;7.80;5.23;;;;;;;13.56;100.00;100851.63;5029182;28;20756;-74
2022/06/14 01:35:01;;;;;;;5.03;4.63;;;;;;;13.50;100.00;100851.72;5007603;28;20200;-74
2022/06/14 01:37:27;;;;;;;7.23;5.13;;;;;;;13.43;100.00;100850.06;5007712;28;20190;-74
2022/06/14 01:39:55;;;;;;;6.00;5.00;;;;;;;13.39;100.00;100841.41;5023919;28;20203;-75
2022/06/14 01:42:47;;;;;;;5.00;4.50;;;;;;;13.37;100.00;100844.03;5006149;28;20217;-75
2022/06/14 01:45:34;;;;;;;6.70;4.70;;;;;;;13.39;100.00;100846.63;5005993;28;20193;-75
2022/06/14 01:48:08;;;;;;;5.00;4.50;;;;;;;13.39;100.00;100855.25;5010855;28;20705;-73
2022/06/14 01:53:41;;;;;;;6.53;4.57;;;;;;;13.44;100.00;100851.78;5003567;28;20584;-75
2022/06/14 01:56:13;;;;;;;4.90;4.30;;;;;;;13.43;100.00;100848.34;5016194;28;20187;-75
2022/06/14 01:59:03;;;;;;;5.07;4.57;;;;;;;13.39;100.00;100844.00;5013346;28;20374;-76
2022/06/14 02:01:32;;;;;;;4.93;4.43;;;;;;;13.35;100.00;100845.81;5001806;28;20556;-74
2022/06/14 02:04:38;;;;;;;5.07;4.57;;;;;;;13.26;100.00;100840.69;5006876;28;20661;-74
2022/06/14 02:07:06;;;;;;;4.87;4.47;;;;;;;13.19;100.00;100845.09;5010408;28;20204;-75
2022/06/14 02:09:47;;;;;;;5.07;4.57;;;;;;;13.14;100.00;100846.03;5009242;28;20215;-74
2022/06/14 02:12:19;;;;;;;6.57;5.10;;;;;;;13.10;100.00;100838.25;5023390;28;20225;-75
2022/06/14 02:15:02;;;;;;;5.13;4.63;;;;;;;13.05;100.00;100842.66;5021828;28;20208;-75
2022/06/14 02:17:36;;;;;;;4.77;4.27;;;;;;;13.03;100.00;100841.81;5006873;28;20193;-75
2022/06/14 02:20:08;;;;;;;6.10;4.70;;;;;;;13.04;100.00;100842.66;5003872;28;20566;-75
2022/06/14 02:22:41;;;;;;;4.90;4.50;;;;;;;13.00;100.00;100847.03;5006068;28;20219;-76
2022/06/14 02:25:14;;;;;;;5.43;4.80;;;;;;;13.01;100.00;100853.09;5007825;28;20184;-76
2022/06/14 02:27:51;;;;;;;6.30;5.10;;;;;;;13.01;100.00;100843.56;5006316;28;20192;-76
2022/06/14 02:30:23;;;;;;;4.87;4.47;;;;;;;13.02;100.00;100847.00;5009918;28;20188;-77
2022/06/14 02:32:53;;;;;;;6.17;5.30;;;;;;;13.05;100.00;100844.38;5008184;28;20206;-76
2022/06/14 02:35:23;;;;;;;5.50;4.70;;;;;;;13.06;100.00;100859.97;5022053;28;20668;-76
2022/06/14 02:37:59;;;;;;;5.43;4.57;;;;;;;13.07;100.00;100846.09;4999374;28;20202;-77
2022/06/14 02:40:35;;;;;;;5.20;4.70;;;;;;;13.07;100.00;100853.91;5017726;28;20202;-76
2022/06/14 02:43:18;;;;;;;5.00;4.50;;;;;;;13.07;100.00;100859.09;5015225;28;20206;-76
2022/06/14 02:45:52;;;;;;;5.13;4.43;;;;;;;13.06;100.00;100849.56;5014718;28;20186;-76
2022/06/14 02:48:31;;;;;;;6.37;4.60;;;;;;;13.06;100.00;100854.78;5018426;28;20230;-75
2022/06/14 02:51:04;;;;;;;8.13;5.00;;;;;;;13.06;100.00;100841.78;5014975;28;20214;-75
2022/06/14 02:53:44;;;;;;;7.17;5.07;;;;;;;13.07;100.00;100840.91;5030338;28;20198;-75
2022/06/14 02:56:28;;;;;;;5.80;4.73;;;;;;;13.07;100.00;100845.22;5016901;28;20195;-75
2022/06/14 02:59:03;;;;;;;7.03;4.87;;;;;;;13.07;100.00;100848.69;5016434;28;20214;-75
2022/06/14 03:01:40;;;;;;;4.97;3.80;;;;;;;13.07;100.00;100845.22;5011934;28;20230;-75
2022/06/14 03:04:12;;;;;;;5.33;4.83;;;;;;;13.08;100.00;100844.34;5025994;28;20184;-76
2022/06/14 03:06:48;;;;;;;5.47;4.50;;;;;;;13.05;100.00;100836.59;5008913;28;20527;-75
2022/06/14 03:09:26;;;;;;;5.17;4.67;;;;;;;13.05;100.00;100839.19;5011773;28;20904;-76
2022/06/14 03:12:16;;;;;;;5.83;4.47;;;;;;;13.01;100.00;100840.97;5009215;28;20204;-75
2022/06/14 03:15:05;;;;;;;7.57;4.60;;;;;;;12.96;100.00;100837.53;5007429;28;20211;-75
2022/06/14 03:18:06;;;;;;;6.43;4.47;;;;;;;12.92;100.00;100841.06;5009907;28;20211;-75
2022/06/14 03:20:48;;;;;;;5.50;4.57;;;;;;;12.86;100.00;100838.50;4953233;28;20288;-74
2022/06/14 03:23:40;;;;;;;5.17;4.20;;;;;;;12.86;100.00;100833.31;5012500;28;20219;-74
2022/06/14 03:26:17;;;;;;;6.27;4.83;;;;;;;12.90;100.00;100832.41;5023241;28;20231;-75
2022/06/14 03:28:55;;;;;;;5.73;4.90;;;;;;;12.89;100.00;100828.94;5006040;28;20731;-74
2022/06/14 03:31:36;;;;;;;5.57;5.07;;;;;;;12.90;100.00;100835.88;5001354;28;20204;-76
2022/06/14 03:34:04;;;;;;;5.70;5.03;;;;;;;12.91;100.00;100839.34;5025871;28;20306;-74
2022/06/14 03:36:30;;;;;;;5.93;5.20;;;;;;;12.94;100.00;100844.47;5011037;28;20242;-75
2022/06/14 03:39:02;;;;;;;5.50;5.00;;;;;;;12.95;100.00;100838.41;5012059;28;20192;-76
2022/06/14 03:41:32;;;;;;;5.80;4.83;;;;;;;13.00;100.00;100848.78;5010395;28;20628;-75
2022/06/14 03:44:00;;;;;;;5.10;4.70;;;;;;;13.04;100.00;100848.72;5006453;28;20190;-75
2022/06/14 03:47:08;;;;;;;5.73;4.27;;;;;;;13.12;100.00;100840.84;5008157;28;20195;-76
2022/06/14 03:49:35;;;;;;;6.60;4.47;;;;;;;13.23;100.00;100845.94;5028165;28;20191;-75
2022/06/14 03:52:13;;;;;;;6.23;5.20;;;;;;;13.33;100.00;100844.06;5008350;28;20201;-75
2022/06/14 03:54:54;;;;;;;9.83;5.73;;;;;;;13.51;100.00;100845.66;5025228;28;20212;-75
2022/06/14 03:57:32;;;;;;;7.27;5.17;;;;;;;13.98;100.00;100846.78;5006645;28;20196;-76
2022/06/14 04:00:32;;;;;;;6.73;5.33;;;;;;;14.54;100.00;100853.72;5013684;28;20184;-75
2022/06/14 04:02:57;;;;;;;5.17;4.53;;;;;;;15.06;98.47;100844.16;5004373;28;20571;-75
2022/06/14 04:05:31;;;;;;;7.27;4.60;;;;;;;15.18;96.43;100837.88;5007649;28;20176;-76
2022/06/14 04:08:23;;;;;;;4.80;4.40;;;;;;;15.06;96.65;100838.94;5007813;28;20721;-76
2022/06/14 04:11:01;;;;;;;6.37;4.90;;;;;;;14.91;97.34;100842.69;4994667;28;20205;-76
2022/06/14 04:13:43;;;;;;;6.50;5.00;;;;;;;14.77;97.86;100835.13;5015059;28;20201;-75
2022/06/14 04:16:22;;;;;;;4.70;4.30;;;;;;;14.73;98.37;100841.28;5026322;28;20285;-75
2022/06/14 04:19:26;;;;;;;5.40;4.37;;;;;;;14.83;98.28;100835.88;5008060;28;20517;-76
2022/06/14 04:22:13;;;;;;;6.03;4.50;;;;;;;15.56;96.50;100838.00;5009613;28;20233;-74
2022/06/14 04:24:38;;;;;;;5.23;4.30;;;;;;;15.77;94.56;100836.66;5009317;28;20194;-75
2022/06/14 04:27:14;;;;;;;4.23;3.83;;;;;;;15.66;94.95;100834.28;5007858;28;20199;-75
2022/06/14 04:29:48;;;;;;;5.73;4.30;;;;;;;15.52;94.95;100838.94;5004394;28;20220;-75
2022/06/14 04:32:32;;;;;;;5.10;4.30;;;;;;;15.37;95.33;100840.09;5013278;28;20231;-75
2022/06/14 04:35:11;;;;;;;6.40;4.73;;;;;;;15.26;95.64;100832.50;5023932;28;20360;-75
2022/06/14 04:37:42;;;;;;;4.97;4.30;;;;;;;15.34;95.64;100827.97;5005636;28;20186;-75
2022/06/14 04:40:15;;;;;;;5.30;4.27;;;;;;;15.93;94.29;100836.38;5006708;28;20557;-76
2022/06/14 04:42:44;;;;;;;5.37;3.90;;;;;;;17.30;90.62;100839.03;5028575;28;20227;-75
2022/06/14 04:45:15;;;;;;;4.23;3.80;;;;;;;18.64;86.18;100828.00;5006109;28;20187;-76
2022/06/14 04:48:06;;;;;;;6.40;4.47;;;;;;;19.97;82.54;100830.19;5003007;28;20188;-75
2022/06/14 04:50:43;;;;;;;4.27;3.77;;;;;;;20.84;77.16;100828.38;5022046;28;20679;-76
2022/06/14 04:53:23;;;;;;;4.87;4.00;;;;;;;21.49;74.31;100829.91;5008458;28;20213;-75
2022/06/14 04:55:59;;;;;;;5.87;3.50;;;;;;;22.16;72.31;100818.88;5007544;28;20316;-75
2022/06/14 04:58:36;;;;;;;4.33;3.70;;;;;;;22.62;70.53;100813.97;5008898;28;20196;-76
2022/06/14 05:01:07;;;;;;;5.87;4.00;;;;;;;23.13;68.88;100816.59;5006826;28;20211;-75
2022/06/14 05:03:47;;;;;;;3.93;3.50;;;;;;;23.09;67.94;100825.59;5007048;28;20188;-76
2022/06/14 05:06:22;;;;;;;7.93;4.23;;;;;;;23.25;67.72;100819.53;5023140;28;20176;-76
2022/06/14 05:08:56;;;;;;;4.87;3.63;;;;;;;23.38;67.03;100820.56;5022868;28;20647;-74
2022/06/14 05:11:47;;;;;;;6.47;3.83;;;;;;;22.63;67.04;100817.44;5006064;28;20234;-76
2022/06/14 05:14:40;;;;;;;5.40;3.70;;;;;;;23.18;66.73;100811.06;5011869;28;20200;-76
2022/06/14 05:17:22;;;;;;;4.33;3.50;;;;;;;23.59;66.06;100812.41;5005399;28;20193;-76
2022/06/14 05:19:48;;;;;;;7.87;4.20;;;;;;;23.66;65.27;100815.56;5009953;28;20192;-76
2022/06/14 05:22:24;;;;;;;4.90;3.40;;;;;;;23.86;65.65;100812.66;5022231;28;20870;-75
2022/06/14 05:24:50;;;;;;;4.33;3.73;;;;;;;25.05;63.99;100809.31;5021260;28;20210;-75
2022/06/14 05:27:39;;;;;;;4.50;3.50;;;;;;;25.79;62.25;100804.66;5008849;28;20214;-76
2022/06/14 05:30:22;;;;;;;3.97;3.40;;;;;;;26.35;60.29;100810.81;5005589;28;20223;-76
2022/06/14 05:33:00;;;;;;;4.00;3.20;;;;;;;26.53;58.91;100806.09;5001795;28;20208;-75
2022/06/14 05:35:37;;;;;;;6.20;3.40;;;;;;;26.48;59.76;100806.38;4999710;28;20270;-76
2022/06/14 05:38:12;;;;;;;5.57;3.90;;;;;;;26.58;59.06;100801.28;5002248;28;20196;-75
2022/06/14 05:40:49;;;;;;;8.30;3.73;;;;;;;26.59;58.64;100800.34;5022091;28;20183;-75
2022/06/14 05:43:42;;;;;;;3.87;3.37;;;;;;;27.30;58.36;100795.41;5003867;28;20188;-77
2022/06/14 05:46:18;;;;;;;6.60;3.27;;;;;;;26.96;58.18;100784.53;4998978;28;20249;-75
2022/06/14 05:48:50;;;;;;;5.37;3.50;;;;;;;26.92;58.61;100789.19;5017984;28;20196;-78
2022/06/14 05:51:19;;;;;;;6.43;3.83;;;;;;;27.49;57.89;100794.97;5005647;28;20678;-75
2022/06/14 05:53:54;;;;;;;7.63;3.90;;;;;;;27.64;58.14;100800.97;5006494;28;20706;-77
2022/06/14 05:56:32;;;;;;;5.87;3.83;;;;;;;27.96;57.69;100789.75;5006919;28;20188;-77
2022/06/14 05:59:45;;;;;;;4.83;3.50;;;;;;;28.49;56.73;100791.19;5006982;28;20547;-76
2022/06/14 06:02:31;;;;;;;5.27;3.43;;;;;;;28.38;55.94;100788.47;4964294;28;20612;-75
2022/06/14 06:05:08;;;;;;;5.20;3.30;;;;;;;28.89;55.88;100793.41;4957742;28;20188;-75
2022/06/14 06:07:39;;;;;;;5.03;3.13;;;;;;;28.40;56.21;100794.53;4982379;28;20211;-76
2022/06/14 06:10:06;;;;;;;5.30;3.30;;;;;;;27.41;55.77;100788.50;5004131;28;20193;-76
2022/06/14 06:12:38;;;;;;;3.10;2.70;;;;;;;28.17;55.72;100782.97;5006801;28;20282;-76
2022/06/14 06:15:23;;;;;;;5.03;3.20;;;;;;;27.99;56.15;100784.22;5005619;28;20204;-76
2022/06/14 06:18:26;;;;;;;7.03;3.17;;;;;;;28.56;54.87;100778.25;5017262;28;20558;-76
2022/06/14 06:21:05;;;;;;;4.67;3.33;;;;;;;29.03;54.60;100778.16;4968362;28;20261;-75
2022/06/14 06:23:37;;;;;;;4.20;3.10;;;;;;;29.20;54.46;100784.78;5002048;28;20291;-77
2022/06/14 06:26:05;;;;;;;5.60;2.60;;;;;;;29.19;54.45;100791.94;5005446;28;20220;-76
2022/06/14 06:28:38;;;;;;;5.63;3.10;;;;;;;29.38;53.50;100786.97;5007727;28;20207;-78
2022/06/14 06:31:25;;;;;;;4.00;2.80;;;;;;;29.61;53.76;100788.63;5004576;28;20228;-76
2022/06/14 06:33:54;;;;;;;4.10;3.07;;;;;;;29.57;52.96;100775.69;4999383;28;20180;-75
2022/06/14 06:36:44;;;;;;;4.13;3.03;;;;;;;29.08;53.28;100797.28;5003553;28;20188;-75
2022/06/14 06:39:36;;;;;;;5.17;2.97;;;;;;;27.58;55.38;100780.16;5004484;28;20187;-76
2022/06/14 06:42:46;;;;;;;4.00;3.10;;;;;;;27.95;55.07;100776.59;5000824;28;20223;-76
2022/06/14 06:45:24;;;;;;;4.97;3.07;;;;;;;28.60;55.01;100793.84;4978288;28;20204;-75
2022/06/14 06:48:05;;;;;;;3.80;2.90;;;;;;;28.22;54.44;100779.00;5008459;28;20250;-76
2022/06/14 06:50:34;;;;;;;3.43;2.77;;;;;;;28.87;53.97;100775.88;4997914;28;20186;-75
2022/06/14 06:53:16;;;;;;;6.70;3.13;;;;;;;29.04;54.20;100785.19;4997539;28;20640;-75
2022/06/14 06:56:06;;;;;;;5.00;2.90;;;;;;;29.28;53.91;100781.50;5007135;28;20459;-75
2022/06/14 06:58:35;;;;;;;4.60;2.60;;;;;;;29.50;53.28;100781.50;5009292;28;20200;-75
2022/06/14 07:01:10;;;;;;;5.10;2.77;;;;;;;29.41;53.73;100774.28;5005330;28;20216;-76
2022/06/14 07:03:47;;;;;;;4.60;2.93;;;;;;;29.59;53.67;100768.38;5006755;28;20176;-77
2022/06/14 07:06:19;;;;;;;3.43;2.77;;;;;;;29.78;53.04;100778.41;5017274;28;20562;-75
2022/06/14 07:08:53;;;;;;;4.53;2.90;;;;;;;29.68;53.14;100767.63;5013370;28;20193;-78
2022/06/14 07:11:24;;;;;;;3.40;2.63;;;;;;;29.86;53.17;100778.59;5002121;28;20204;-76
2022/06/14 07:14:10;;;;;;;4.30;3.07;;;;;;;29.75;53.39;100773.31;5012772;28;20684;-76
2022/06/14 07:16:44;;;;;;;4.67;3.10;;;;;;;29.74;53.19;100775.13;5004534;28;20188;-76
2022/06/14 07:19:36;;;;;;;5.90;2.67;;;;;;;29.43;53.66;100769.63;5004343;28;20190;-76
2022/06/14 07:22:20;;;;;;;4.47;3.20;;;;;;;28.97;54.06;100773.31;5019291;28;20255;-76
2022/06/14 07:24:49;;;;;;;3.73;2.77;;;;;;;29.17;54.39;100769.91;5003382;28;20193;-75
2022/06/14 07:27:17;;;;;;;6.43;3.37;;;;;;;28.27;54.85;100768.84;5020445;28;20246;-76
2022/06/14 07:29:48;;;;;;;4.13;2.87;;;;;;;28.34;54.93;100763.06;5020024;28;20196;-75
2022/06/14 07:32:17;;;;;;;5.73;3.30;;;;;;;27.72;55.72;100762.34;5008038;28;20547;-75
2022/06/14 07:34:44;;;;;;;4.93;3.17;;;;;;;27.61;56.49;100763.13;5004190;28;20345;-75
2022/06/14 07:37:22;;;;;;;3.87;3.00;;;;;;;27.75;56.08;100756.81;5008578;28;20196;-75
2022/06/14 07:39:59;;;;;;;7.33;3.03;;;;;;;27.79;56.20;100750.28;5006619;28;20249;-75
2022/06/14 07:43:01;;;;;;;3.60;2.83;;;;;;;27.93;55.80;100758.06;5007474;28;20216;-75
2022/06/14 07:45:34;;;;;;;4.70;3.10;;;;;;;27.74;56.49;100753.28;5019775;28;20189;-75
2022/06/14 07:48:00;;;;;;;5.10;2.90;;;;;;;27.37;56.46;100745.34;4996498;28;20188;-75
2022/06/14 07:50:47;;;;;;;6.73;3.53;;;;;;;27.07;56.67;100743.94;5000658;28;20187;-76
2022/06/14 07:53:20;;;;;;;3.80;3.03;;;;;;;27.46;57.06;100744.69;5019819;28;20689;-76
2022/06/14 07:55:51;;;;;;;3.90;3.07;;;;;;;27.20;56.36;100752.72;5005035;28;20703;-76
2022/06/14 07:58:22;;;;;;;4.77;3.10;;;;;;;27.06;56.73;100748.41;5009254;28;20191;-76
2022/06/14 08:01:09;;;;;;;5.00;3.33;;;;;;;26.96;57.46;100747.38;5007430;28;20196;-76
2022/06/14 08:04:01;;;;;;;6.30;3.40;;;;;;;26.87;57.04;100748.00;5001551;28;20278;-77
2022/06/14 08:06:29;;;;;;;5.07;3.60;;;;;;;26.69;57.40;100743.03;5004592;28;20200;-75
2022/06/14 08:09:02;;;;;;;3.57;3.27;;;;;;;26.62;58.13;100736.44;5005406;28;20196;-77
2022/06/14 08:11:40;;;;;;;6.23;3.50;;;;;;;26.06;58.19;100747.28;5009304;28;20220;-75
2022/06/14 08:14:33;;;;;;;5.00;3.23;;;;;;;25.54;59.26;100744.47;5006699;28;20691;-76
2022/06/14 08:16:59;;;;;;;5.03;3.40;;;;;;;25.32;59.53;100745.00;5009482;28;20231;-75
2022/06/14 08:19:42;;;;;;;4.33;3.30;;;;;;;25.02;60.10;100743.34;5030959;28;20786;-74
2022/06/14 08:22:15;;;;;;;5.27;3.10;;;;;;;25.18;60.64;100730.81;5022609;28;20235;-76
2022/06/14 08:24:51;;;;;;;4.57;3.23;;;;;;;25.17;60.55;100731.78;5008587;28;20227;-74
2022/06/14 08:27:32;;;;;;;6.20;3.30;;;;;;;25.17;60.01;100726.47;5008240;28;20188;-75
2022/06/14 08:30:05;;;;;;;5.60;3.10;;;;;;;25.32;60.15;100732.56;5006388;28;20186;-76
2022/06/14 08:32:43;;;;;;;3.83;2.97;;;;;;;25.26;60.47;100725.00;5006887;28;20204;-75
2022/06/14 08:35:30;;;;;;;3.93;3.10;;;;;;;25.03;60.88;100727.34;5002186;28;20220;-76
2022/06/14 08:38:13;;;;;;;4.47;3.30;;;;;;;24.51;61.24;100729.56;5007711;28;20565;-75
2022/06/14 08:40:54;;;;;;;4.57;3.13;;;;;;;24.37;61.22;100723.44;5006143;28;20227;-74
2022/06/14 08:43:26;;;;;;;5.20;3.40;;;;;;;24.43;62.32;100717.78;5008186;28;20246;-76
2022/06/14 08:45:54;;;;;;;5.07;3.20;;;;;;;24.39;61.40;100713.63;5008448;28;20180;-75
2022/06/14 08:48:38;;;;;;;5.23;3.30;;;;;;;24.43;60.97;100718.63;5000661;28;20207;-75
2022/06/14 08:51:13;;;;;;;4.23;3.37;;;;;;;24.49;61.72;100722.69;5001244;28;20216;-76
2022/06/14 08:54:30;;;;;;;4.77;3.20;;;;;;;24.20;62.20;100717.34;5004766;28;20614;-76
2022/06/14 08:56:58;;;;;;;6.10;3.40;;;;;;;24.03;62.29;100711.28;5005886;28;20205;-77
2022/06/14 08:59:54;;;;;;;4.40;3.40;;;;;;;23.97;62.11;100700.22;5008174;28;20275;-76
2022/06/14 09:02:31;;;;;;;5.50;4.00;;;;;;;23.93;63.30;100702.16;5015340;28;20209;-77
2022/06/14 09:05:02;;;;;;;4.33;3.17;;;;;;;23.98;63.41;100709.84;5023708;28;20226;-74
2022/06/14 09:07:37;;;;;;;5.73;3.60;;;;;;;23.84;63.38;100702.69;4999997;28;20283;-75
2022/06/14 09:10:42;;;;;;;7.23;4.20;;;;;;;23.74;62.86;100697.94;5006115;28;20662;-75
2022/06/14 09:13:24;;;;;;;11.53;3.80;;;;;;;23.63;62.95;100695.06;5008743;28;20184;-74
2022/06/14 09:16:07;;;;;;;9.23;3.67;;;;;;;23.75;63.34;100694.34;5007938;28;20224;-75
2022/06/14 09:18:37;;;;;;;3.60;3.03;;;;;;;23.71;62.66;100689.34;4997112;28;20275;-74
2022/06/14 09:21:12;;;;;;;7.00;3.73;;;;;;;23.83;62.43;100699.19;5006867;28;20295;-76
2022/06/14 09:24:17;;;;;;;4.43;3.23;;;;;;;23.90;62.42;100691.75;5003573;28;20737;-75
2022/06/14 09:27:27;;;;;;;3.83;3.10;;;;;;;24.10;62.02;100682.69;5004330;28;20254;-77
2022/06/14 09:30:30;;;;;;;5.23;3.30;;;;;;;24.05;62.35;100682.09;4988354;28;20640;-75
2022/06/14 09:33:23;;;;;;;5.03;3.37;;;;;;;23.99;60.95;100683.31;5005117;28;20203;-74
2022/06/14 09:36:03;;;;;;;5.43;3.50;;;;;;;23.89;60.36;100687.41;5007482;28;20295;-75
2022/06/14 09:38:55;;;;;;;5.20;3.40;;;;;;;23.98;60.99;100676.31;4990443;28;20215;-77
2022/06/14 09:41:45;;;;;;;5.27;3.53;;;;;;;24.06;62.65;100673.22;5023322;28;20212;-75
2022/06/14 09:44:19;;;;;;;5.90;3.80;;;;;;;24.13;61.90;100669.28;4988581;28;20186;-74
2022/06/14 09:47:10;;;;;;;6.07;4.03;;;;;;;24.24;61.96;100675.72;4987439;28;20199;-74
2022/06/14 09:50:00;;;;;;;5.80;3.30;;;;;;;24.18;61.91;100669.00;4993674;28;20238;-77
2022/06/14 09:52:34;;;;;;;5.90;3.97;;;;;;;24.23;60.90;100661.66;5007545;28;20263;-75
2022/06/14 09:55:18;;;;;;;6.13;3.73;;;;;;;24.02;61.03;100688.41;5010930;28;20243;-75
2022/06/14 09:57:49;;;;;;;8.43;3.73;;;;;;;23.97;61.07;100663.19;5005024;28;20197;-75
2022/06/14 10:00:29;;;;;;;4.50;3.90;;;;;;;23.97;61.32;100650.00;5006747;28;20219;-75
2022/06/14 10:03:33;;;;;;;4.87;3.90;;;;;;;24.10;61.40;100653.59;5003536;28;20208;-75
2022/06/14 10:06:20;;;;;;;4.77;3.87;;;;;;;24.25;60.61;100653.59;5005636;28;20199;-75
2022/06/14 10:09:08;;;;;;;3.80;3.50;;;;;;;24.22;60.92;100643.22;5007127;28;20717;-77
2022/06/14 10:11:39;;;;;;;6.73;3.90;;;;;;;24.00;60.91;100644.53;5006335;28;20564;-75
2022/06/14 10:14:28;;;;;;;5.77;3.70;;;;;;;24.34;61.84;100640.69;5007630;28;20659;-76
2022/06/14 10:17:15;;;;;;;5.33;3.57;;;;;;;24.30;61.86;100640.97;5007691;28;20262;-76
2022/06/14 10:20:14;;;;;;;4.17;3.57;;;;;;;24.37;60.91;100638.78;5009862;28;20620;-75
2022/06/14 10:22:54;;;;;;;5.20;3.83;;;;;;;24.27;60.78;100635.84;5002857;28;20528;-76
2022/06/14 10:28:11;;;;;;;6.53;4.00;;;;;;;24.44;61.20;100642.75;5012930;28;20189;-75
2022/06/14 10:29:13;;;;;;;4.63;3.50;;;;;;;24.57;60.74;100638.41;5009777;28;20287;-76
2022/06/14 10:32:06;;;;;;;4.30;3.47;;;;;;;24.66;60.98;100635.19;5002784;28;20932;-76
2022/06/14 10:34:41;;;;;;;5.33;3.67;;;;;;;24.42;60.33;100639.38;5016791;28;20207;-75
2022/06/14 10:37:48;;;;;;;7.13;4.10;;;;;;;24.41;60.03;100637.66;5020570;28;20734;-75
2022/06/14 10:40:48;;;;;;;5.00;3.50;;;;;;;24.61;60.40;100623.19;4997906;28;20200;-75
2022/06/14 10:43:35;;;;;;;4.60;4.13;;;;;;;24.76;60.58;100611.66;5002915;28;20192;-75
2022/06/14 10:46:12;;;;;;;5.97;3.97;;;;;;;24.73;60.81;100619.81;5003493;28;20647;-75
2022/06/14 10:49:07;;;;;;;6.07;3.90;;;;;;;24.63;60.65;100611.56;5003984;28;20188;-75
2022/06/14 10:51:45;;;;;;;4.93;3.53;;;;;;;24.82;60.14;100613.06;5022594;28;20215;-75
2022/06/14 10:54:23;;;;;;;5.57;4.23;;;;;;;24.66;59.80;100607.84;5011658;28;20222;-75
2022/06/14 10:56:57;;;;;;;4.60;3.97;;;;;;;24.84;59.95;100612.97;5014061;28;20192;-76
2022/06/14 10:59:25;;;;;;;9.20;4.30;;;;;;;24.78;59.85;100614.22;5002855;28;20180;-75
2022/06/14 11:02:04;;;;;;;5.97;4.03;;;;;;;24.73;59.73;100608.38;5018388;28;20206;-76
2022/06/14 11:04:35;;;;;;;7.20;4.03;;;;;;;24.85;60.37;100612.88;5007432;28;20389;-75
2022/06/14 11:07:33;;;;;;;5.73;3.73;;;;;;;24.72;58.59;100618.09;4999126;28;20816;-75
2022/06/14 11:10:35;;;;;;;5.47;3.90;;;;;;;24.84;59.25;100603.25;4990860;28;20663;-75
2022/06/14 11:13:13;;;;;;;4.63;4.20;;;;;;;25.03;59.16;100597.59;5011223;28;20269;-75
2022/06/14 11:15:42;;;;;;;4.10;3.70;;;;;;;25.06;59.66;100601.84;5000069;28;20257;-76
2022/06/14 11:18:33;;;;;;;5.97;3.40;;;;;;;25.08;59.19;100582.28;5005166;28;20219;-75
2022/06/14 11:21:29;;;;;;;4.43;3.50;;;;;;;25.01;58.98;100573.00;5005785;28;20976;-76
2022/06/14 11:24:11;;;;;;;4.13;3.53;;;;;;;25.01;59.37;100586.25;5005412;28;20185;-75
2022/06/14 11:27:00;;;;;;;4.10;3.67;;;;;;;25.08;59.42;100576.09;5001580;28;20652;-75
2022/06/14 11:29:54;;;;;;;5.97;3.40;;;;;;;25.11;59.33;100575.91;5005857;28;20184;-75
2022/06/14 11:32:34;;;;;;;5.23;3.70;;;;;;;25.13;58.50;100576.66;4990632;28;20348;-75
2022/06/14 11:35:37;;;;;;;5.33;3.60;;;;;;;25.23;58.71;100568.97;5020966;28;20236;-75
2022/06/14 11:38:41;;;;;;;5.70;4.20;;;;;;;25.39;58.99;100568.78;5018587;28;20848;-73
2022/06/14 11:41:10;;;;;;;6.90;3.77;;;;;;;25.26;59.02;100569.59;5003610;28;20254;-75
2022/06/14 11:43:41;;;;;;;4.63;3.77;;;;;;;25.38;58.51;100559.13;5010194;28;20192;-75
2022/06/14 11:46:12;;;;;;;3.97;3.47;;;;;;;25.42;58.58;100563.31;5020655;28;20998;-75
2022/06/14 11:49:17;;;;;;;4.47;3.60;;;;;;;25.49;57.47;100546.03;5003814;28;20176;-75
2022/06/14 11:52:28;;;;;;;6.10;3.87;;;;;;;25.56;58.18;100536.72;4977137;28;20216;-75
2022/06/14 11:54:59;;;;;;;4.90;3.13;;;;;;;25.50;57.50;100549.53;5003632;28;20250;-75
2022/06/14 11:57:31;;;;;;;4.43;3.67;;;;;;;25.46;57.87;100540.09;5007038;28;20189;-74
2022/06/14 12:00:05;;;;;;;4.60;3.23;;;;;;;25.64;58.06;100545.97;5009321;28;20271;-75
2022/06/14 12:02:42;;;;;;;7.00;3.93;;;;;;;25.52;57.95;100539.69;5009738;28;20298;-75
2022/06/14 12:05:13;;;;;;;5.87;3.63;;;;;;;25.59;57.89;100529.53;5010229;28;20199;-75
2022/06/14 12:07:49;;;;;;;5.03;3.93;;;;;;;25.48;57.83;100533.78;5009389;28;20184;-75
2022/06/14 12:10:39;;;;;;;5.73;3.40;;;;;;;25.51;58.04;100532.69;5021049;28;20184;-75
2022/06/14 12:13:32;;;;;;;5.43;3.80;;;;;;;25.51;57.64;100522.94;5015321;28;20628;-75
2022/06/14 12:16:02;;;;;;;3.63;3.30;;;;;;;25.71;57.49;100521.56;5016541;28;20218;-75
2022/06/14 12:18:30;;;;;;;6.50;3.80;;;;;;;25.69;56.69;100522.63;5030175;28;20360;-75
2022/06/14 12:21:10;;;;;;;6.80;3.90;;;;;;;25.81;58.20;100524.41;5005815;28;20181;-76